Latest Weather Observations for Hervey Bay

IDQ60801

Issued at 11:35 pm EST Friday 31 October 2014 (issued every 30 minutes, with the page automatically refreshed every 10 minutes)

About weather observations | Map of weather stations | Latest weather observations for QLD | Other Formats
Station Details ID: 040405 Name: HERVEY BAY AIRPORT Lat: -25.32 Lon: 152.88 Height: 12.98 m
Data from the previous 72 hours. | See also: Recent months at Hervey Bay
Date/Time
EST
Temp
°C
App
Temp
°C
Dew
Point
Rel
Hum
%
Delta-T
°C
Wind Press
QNH
hPa
Press
MSL
hPa
Rain
since 9 am
mm
Dir
 
Spd
km/h
Gust
km/h
Spd
kts
Gust
kts
31/11:30pm 23.3 24.1 19.0 77 2.7 N 13 17 7 9 1016.0 1015.9 0.0
31/11:00pm 23.0 23.8 19.0 78 2.5 NNE 13 19 7 10 1016.2 1016.1 0.0
31/10:30pm 23.1 24.3 19.1 78 2.5 NNE 11 17 6 9 1016.4 1016.3 0.0
31/10:00pm 23.0 23.6 18.7 77 2.7 N 13 20 7 11 1016.6 1016.5 0.0
31/09:30pm 23.3 24.2 19.2 78 2.6 NNE 13 22 7 12 1016.5 1016.4 0.0
31/09:00pm 23.2 23.1 18.7 76 2.8 N 17 20 9 11 1016.4 1016.3 0.0
31/08:30pm 23.8 24.3 19.3 76 2.9 NNE 15 20 8 11 1016.4 1016.3 0.0
31/08:00pm 23.7 24.6 19.2 76 2.9 N 13 19 7 10 1016.1 1016.0 0.0
31/07:30pm 23.6 24.1 19.3 77 2.7 N 15 22 8 12 1015.8 1015.7 0.0
31/07:00pm 23.8 24.1 19.5 77 2.8 N 17 24 9 13 1015.2 1015.1 0.0
31/06:30pm 23.8 23.6 19.3 76 2.9 N 19 26 10 14 1015.0 1014.9 0.0
31/06:00pm 24.1 23.7 19.0 73 3.2 N 19 26 10 14 1014.7 1014.6 0.0
31/05:30pm 24.7 24.1 18.9 70 3.7 N 20 28 11 15 1014.7 1014.6 0.0
31/05:00pm 24.9 23.9 18.8 69 3.9 N 22 30 12 16 1014.5 1014.4 0.0
31/04:30pm 25.7 24.8 19.1 67 4.2 N 22 32 12 17 1014.6 1014.5 0.0
31/04:00pm 25.9 24.9 18.8 65 4.5 N 22 32 12 17 1014.4 1014.3 0.0
31/03:30pm 26.1 24.7 18.8 64 4.7 N 24 33 13 18 1014.3 1014.2 0.0
31/03:00pm 27.0 26.1 19.1 62 5.1 N 22 30 12 16 1014.4 1014.3 0.0
31/02:30pm 27.0 25.6 18.8 60 5.3 N 24 35 13 19 1014.4 1014.3 0.0
31/02:00pm 26.7 25.1 18.3 60 5.3 N 24 33 13 18 1014.6 1014.5 0.0
31/01:30pm 27.6 26.4 17.5 54 6.4 N 20 28 11 15 1014.8 1014.7 0.0
31/01:00pm 27.7 27.3 18.1 56 6.1 N 17 26 9 14 1015.2 1015.1 0.0
31/12:30pm 28.1 27.8 19.1 58 5.8 N 19 26 10 14 1015.5 1015.4 0.0
31/12:00pm 27.6 26.7 18.3 57 5.9 NNW 20 24 11 13 1015.9 1015.8 0.0
31/11:30am 27.7 27.3 19.0 59 5.6 NNW 19 26 10 14 1016.3 1016.2 0.0
31/11:00am 27.6 27.9 19.7 62 5.1 N 17 20 9 11 1016.6 1016.5 0.0
31/10:30am 27.4 27.7 19.5 62 5.1 N 17 24 9 13 1016.9 1016.8 0.0
31/10:00am 26.8 26.6 18.6 60 5.2 NNE 17 24 9 13 1017.3 1017.2 0.0
31/09:30am 25.9 24.7 17.0 58 5.5 NNE 19 22 10 12 1017.2 1017.1 0.0
31/09:00am 25.7 26.7 18.6 65 4.5 N 11 17 6 9 1017.2 1017.1 0.0
31/08:30am 24.9 26.6 19.3 71 3.6 N 9 13 5 7 1017.3 1017.2 0.0
31/08:00am 24.9 26.0 18.8 69 3.9 N 11 17 6 9 1017.3 1017.2 0.0
31/07:30am 24.4 25.8 19.5 74 3.1 N 11 15 6 8 1017.3 1017.2 0.0
31/07:00am 24.1 25.9 19.6 76 2.9 N 9 11 5 6 1017.2 1017.1 0.0
31/06:30am 22.2 25.9 19.9 87 1.5 CALM 0 0 0 0 1016.8 1016.7 0.0
31/06:00am 20.8 24.1 19.1 90 1.1 CALM 0 0 0 0 1016.3 1016.2 0.0
31/05:30am 19.7 22.5 18.0 90 1.0 CALM 0 0 0 0 1016.1 1016.0 0.0
31/05:00am 19.8 21.8 17.9 89 1.2 N 4 7 2 4 1015.8 1015.7 0.0
31/04:30am 19.7 22.4 17.8 89 1.2 CALM 0 0 0 0 1015.7 1015.6 0.0
31/04:00am 19.7 21.0 17.1 85 1.6 N 6 7 3 4 1015.3 1015.2 0.0
31/03:30am 20.7 22.2 17.5 82 2.0 N 6 9 3 5 1015.1 1015.0 0.0
31/03:00am 21.7 23.8 19.3 86 1.5 N 7 11 4 6 1014.9 1014.8 0.0
31/02:30am 22.1 24.2 19.3 84 1.8 N 7 9 4 5 1015.0 1014.9 0.0
31/02:00am 22.2 23.8 19.2 83 1.9 NNW 9 13 5 7 1015.0 1014.9 0.0
31/01:30am 23.0 24.1 19.6 81 2.2 NNW 13 15 7 8 1015.4 1015.3 0.0
31/01:00am 23.1 24.5 19.5 80 2.3 N 11 15 6 8 1015.4 1015.3 0.0
31/12:30am 23.1 25.4 19.9 82 2.1 N 7 9 4 5 1015.5 1015.4 0.0
31/12:00am 23.1 25.4 19.9 82 2.1 N 7 11 4 6 1015.6 1015.5 0.0
 
Date/Time
EST
Temp
°C
App
Temp
°C
Dew
Point
Rel
Hum
%
Delta-T
°C
Wind Press
QNH
hPa
Press
MSL
hPa
Rain
since 9 am
mm
Dir
 
Spd
km/h
Gust
km/h
Spd
kts
Gust
kts
30/11:30pm 23.2 24.7 19.8 81 2.2 N 11 15 6 8 1015.4 1015.3 0.0
30/11:00pm 23.3 25.3 19.9 81 2.2 N 9 15 5 8 1016.0 1015.9 0.0
30/10:30pm 23.6 25.5 19.7 79 2.5 N 9 13 5 7 1016.4 1016.3 0.0
30/10:00pm 23.5 25.0 19.8 80 2.4 NE 11 15 6 8 1016.4 1016.3 0.0
30/09:30pm 23.5 25.0 19.8 80 2.4 NE 11 15 6 8 1016.2 1016.1 0.0
30/09:00pm 23.6 25.0 19.5 78 2.6 NE 11 15 6 8 1016.2 1016.1 0.0
30/08:30pm 23.7 24.7 19.4 77 2.8 NE 13 19 7 10 1016.0 1015.9 0.0
30/08:00pm 24.0 25.0 19.5 76 2.9 NE 13 17 7 9 1015.8 1015.7 0.0
30/07:30pm 23.9 25.8 19.8 78 2.6 N 9 15 5 8 1015.6 1015.5 0.0
30/07:00pm 23.9 25.8 19.8 78 2.6 N 9 15 5 8 1015.0 1014.9 0.0
30/06:30pm 24.0 25.5 19.7 77 2.8 N 11 13 6 7 1014.5 1014.4 0.0
30/06:00pm 24.3 25.3 19.4 74 3.1 N 13 17 7 9 1014.2 1014.1 0.0
30/05:30pm 24.9 25.8 19.3 71 3.6 N 13 19 7 10 1013.8 1013.7 0.0
30/05:00pm 25.1 25.2 19.2 70 3.8 N 17 20 9 11 1013.6 1013.5 0.0
30/04:30pm 26.1 26.0 19.5 67 4.3 N 19 24 10 13 1013.6 1013.5 0.0
30/04:00pm 26.5 26.0 18.6 62 5.0 NNE 19 28 10 15 1013.4 1013.3 0.0
30/03:30pm 27.2 26.7 19.0 61 5.3 NNE 20 28 11 15 1013.4 1013.3 0.0
30/03:00pm 27.5 25.7 17.9 55 6.1 NNE 24 32 13 17 1013.6 1013.5 0.0
30/02:30pm 27.7 26.6 17.8 54 6.3 NNE 20 28 11 15 1013.7 1013.6 0.0
30/02:00pm 27.6 26.7 17.7 54 6.3 NNE 19 30 10 16 1014.0 1013.9 0.0
30/01:30pm 28.0 27.8 18.4 56 6.1 ENE 17 26 9 14 1014.2 1014.1 0.0
30/01:00pm 28.1 28.0 18.8 57 6.0 NE 17 22 9 12 1014.4 1014.3 0.0
30/12:30pm 28.4 28.8 19.1 57 6.0 E 15 20 8 11 1014.7 1014.6 0.0
30/12:00pm 27.9 27.9 18.9 58 5.8 ENE 17 22 9 12 1015.3 1015.2 0.0
30/11:30am 27.8 28.0 19.3 60 5.5 N 17 28 9 15 1015.8 1015.7 0.0
30/11:00am 27.8 28.7 18.5 57 5.9 SE 11 19 6 10 1016.3 1016.2 0.0
30/10:30am 28.0 28.9 19.2 58 5.7 E 13 22 7 12 1016.7 1016.6 0.0
30/10:00am 27.9 27.7 18.6 57 6.0 E 17 24 9 13 1016.9 1016.8 0.0
30/09:30am 26.8 27.6 18.1 59 5.5 E 11 20 6 11 1017.0 1016.9 0.0
30/09:00am 27.3 28.0 18.9 60 5.4 ESE 13 17 7 9 1017.2 1017.1 0.0
30/08:30am 26.4 27.1 18.8 63 4.9 SSE 13 22 7 12 1017.3 1017.2 0.0
30/08:00am 26.5 27.9 19.6 66 4.5 SE 11 17 6 9 1017.3 1017.2 0.0
30/07:30am 24.6 26.7 20.1 76 2.9 S 9 17 5 9 1017.0 1016.9 0.0
30/07:00am 22.3 23.8 19.8 86 1.6 SSW 11 13 6 7 1017.2 1017.1 0.0
30/06:30am 21.4 23.3 19.7 90 1.1 SSW 9 11 5 6 1017.0 1016.9 0.0
30/06:00am 20.4 22.4 19.2 93 0.8 WSW 7 9 4 5 1016.7 1016.6 0.0
30/05:30am 19.6 21.6 18.8 95 0.5 SW 6 7 3 4 1016.3 1016.2 0.0
30/05:27am 19.6 21.6 18.8 95 0.5 SW 6 7 3 4 1016.2 1016.1 0.0
30/05:19am 19.6 21.6 18.8 95 0.5 SW 6 7 3 4 1016.1 1016.0 0.0
30/05:00am 19.4 21.6 18.4 94 0.6 SW 4 6 2 3 1015.8 1015.7 0.0
30/04:35am 19.7 21.6 18.9 95 0.5 SW 7 9 4 5 1015.5 1015.4 0.0
30/04:30am 19.7 21.6 18.9 95 0.5 SW 7 9 4 5 1015.4 1015.3 0.0
30/04:25am 19.7 21.2 18.9 95 0.5 SW 9 9 5 5 1015.4 1015.3 0.0
30/04:00am 19.4 21.0 18.2 93 0.7 SW 7 9 4 5 1015.2 1015.1 0.0
30/03:30am 19.1 20.6 17.6 91 0.9 SW 6 7 3 4 1015.0 1014.9 0.0
30/03:00am 20.0 22.0 18.7 92 0.8 SSW 6 7 3 4 1015.0 1014.9 0.0
30/02:30am 20.0 22.7 18.7 92 0.8 SW 2 6 1 3 1015.1 1015.0 0.0
30/02:00am 19.7 21.3 17.8 89 1.2 SSW 6 7 3 4 1015.2 1015.1 0.0
30/01:30am 21.1 23.2 19.4 90 1.1 S 7 9 4 5 1015.3 1015.2 0.0
30/01:00am 21.4 23.6 19.7 90 1.1 SSE 7 9 4 5 1015.4 1015.3 0.0
30/12:30am 22.0 24.4 20.1 89 1.2 SSE 7 11 4 6 1015.4 1015.3 0.0
30/12:22am 22.0 24.4 20.1 89 1.2 SSE 7 11 4 6 1015.5 1015.4 0.0
30/12:09am 22.1 24.7 20.4 90 1.1 SSE 7 11 4 6 1015.6 1015.5 0.0
30/12:04am 21.9 24.4 20.2 90 1.1 SSE 7 9 4 5 1015.7 1015.6 0.0
30/12:00am 22.0 24.5 20.3 90 1.1 S 7 9 4 5 1015.7 1015.6 0.0
 
Date/Time
EST
Temp
°C
App
Temp
°C
Dew
Point
Rel
Hum
%
Delta-T
°C
Wind Press
QNH
hPa
Press
MSL
hPa
Rain
since 9 am
mm
Dir
 
Spd
km/h
Gust
km/h
Spd
kts
Gust
kts
29/11:31pm 21.6 24.0 20.1 91 1.0 S 7 7 4 4 1015.9 1015.8 0.0
29/11:30pm 21.7 24.2 20.2 91 1.0 S 7 9 4 5 1015.9 1015.8 0.0
29/11:00pm 20.9 23.0 19.4 91 0.9 S 7 9 4 5 1016.1 1016.0 0.0
29/10:30pm 20.6 22.3 18.5 88 1.3 S 7 7 4 4 1016.2 1016.1 0.0
29/10:00pm 20.8 22.8 18.7 88 1.3 S 6 7 3 4 1016.2 1016.1 0.0
29/09:30pm 21.6 23.7 19.3 87 1.5 S 7 9 4 5 1016.2 1016.1 0.0
29/09:00pm 22.1 24.3 19.6 86 1.6 S 7 9 4 5 1016.2 1016.1 0.0
29/08:30pm 22.8 25.1 19.8 83 1.9 S 7 11 4 6 1016.1 1016.0 0.0
29/08:00pm 23.3 25.2 19.7 80 2.3 SE 9 15 5 8 1015.9 1015.8 0.0
29/07:30pm 23.6 25.2 19.9 80 2.4 ESE 11 15 6 8 1015.6 1015.5 0.0
29/07:00pm 23.6 25.0 19.5 78 2.6 SE 11 17 6 9 1015.2 1015.1 0.0
29/06:30pm 23.9 24.7 19.8 78 2.6 SE 15 20 8 11 1014.9 1014.8 0.0
29/06:00pm 24.4 25.2 19.9 76 2.9 SE 15 20 8 11 1014.6 1014.5 0.0
29/05:30pm 24.8 25.9 19.6 73 3.3 SE 13 20 7 11 1014.4 1014.3 0.0
29/05:00pm 25.3 25.5 19.4 70 3.8 ESE 17 26 9 14 1014.0 1013.9 0.0
29/04:30pm 26.7 26.6 19.6 65 4.6 ESE 19 28 10 15 1013.5 1013.4 0.0
29/04:00pm 26.7 25.7 19.6 65 4.6 ESE 24 32 13 17 1013.1 1013.0 0.0
29/03:30pm 27.1 25.2 19.4 62 5.0 ESE 28 33 15 18 1012.8 1012.7 0.0
29/03:00pm 27.8 25.9 19.3 60 5.5 E 28 35 15 19 1012.6 1012.5 0.0
29/02:30pm 27.7 28.0 20.5 65 4.7 ENE 19 26 10 14 1012.7 1012.6 0.0
29/02:00pm 28.0 28.9 20.8 65 4.8 NE 17 24 9 13 1012.9 1012.8 0.0
29/01:30pm 28.0 28.5 20.8 65 4.8 NE 19 24 10 13 1013.0 1012.9 0.0
29/01:00pm 27.9 28.3 20.7 65 4.8 NNE 19 28 10 15 1013.0 1012.9 0.0
29/12:30pm 28.2 29.0 20.7 63 5.0 NE 17 22 9 12 1013.1 1013.0 0.0
29/12:00pm 28.6 30.0 20.3 60 5.5 ENE 13 20 7 11 1013.1 1013.0 0.0
29/11:30am 28.5 29.5 20.2 60 5.5 NE 15 22 8 12 1013.3 1013.2 0.0
29/11:00am 28.3 29.8 20.6 63 5.1 NNE 13 20 7 11 1013.6 1013.5 0.0
29/10:30am 28.0 29.6 20.8 65 4.8 NNE 13 20 7 11 1014.0 1013.9 0.0
29/10:00am 27.3 28.4 20.4 66 4.5 NNE 15 20 8 11 1014.3 1014.2 0.0
29/09:30am 26.5 27.8 20.1 68 4.2 NNE 13 20 7 11 1014.5 1014.4 0.0
29/09:00am 26.0 27.3 20.1 70 3.8 N 13 20 7 11 1014.3 1014.2 0.0
29/08:30am 25.7 26.9 20.0 71 3.7 N 13 19 7 10 1014.1 1014.0 0.0
29/08:00am 26.1 27.9 20.4 71 3.7 N 11 15 6 8 1014.0 1013.9 0.0
29/07:30am 24.8 26.0 19.8 74 3.2 N 13 19 7 10 1013.7 1013.6 0.0
29/07:00am 24.3 25.1 19.8 76 2.9 N 15 19 8 10 1013.3 1013.2 0.0
29/06:30am 24.0 25.5 20.5 81 2.3 N 13 19 7 10 1013.1 1013.0 0.0
29/06:00am 22.7 24.5 20.4 87 1.5 NNE 11 15 6 8 1012.9 1012.8 0.0
29/05:30am 20.7 22.8 19.4 92 0.8 N 7 9 4 5 1012.7 1012.6 0.0
29/05:00am 20.0 21.2 19.0 94 0.6 N 11 17 6 9 1012.5 1012.4 0.0
29/04:30am 17.7 19.7 16.0 90 1.0 CALM 0 7 0 4 1012.6 1012.5 0.0
29/04:00am 18.0 20.2 16.5 91 0.9 CALM 0 0 0 0 1012.2 1012.1 0.0
29/03:30am 18.9 21.5 17.6 92 0.8 CALM 0 0 0 0 1012.0 1011.9 0.0
29/03:00am 18.8 21.2 17.1 90 1.0 CALM 0 0 0 0 1011.6 1011.5 0.0
29/02:30am 19.3 21.9 17.4 89 1.2 CALM 0 0 0 0 1011.3 1011.2 0.0
29/02:00am 19.7 21.5 17.5 87 1.3 ESE 4 7 2 4 1011.2 1011.1 0.0
29/01:30am 20.9 22.8 18.5 86 1.5 S 6 7 3 4 1011.0 1010.9 0.0
29/01:00am 22.1 24.2 19.3 84 1.8 S 7 9 4 5 1011.1 1011.0 0.0
29/12:30am 22.8 24.6 19.6 82 2.0 W 9 13 5 7 1011.3 1011.2 0.0
29/12:00am 23.3 22.2 19.5 79 2.4 NW 24 39 13 21 1011.6 1011.5 0.0

Other Formats:

Comma delimited format used in spreadsheet applications
http://www.bom.gov.au/fwo/IDQ60801/IDQ60801.95565.axf

JavaScript Object Notation format (JSON) in row-major order
http://www.bom.gov.au/fwo/IDQ60801/IDQ60801.95565.json